createdAt,value
2023-05-25T00:02:15.493Z,8.20
2023-05-25T00:04:42.197Z,8.30
2023-05-25T00:07:08.784Z,8.30
2023-05-25T00:09:35.595Z,8.80
2023-05-25T00:12:02.739Z,8.73
2023-05-25T00:14:30.935Z,8.18
2023-05-25T00:16:58.258Z,9.23
2023-05-25T00:19:25.030Z,8.77
2023-05-25T00:21:52.220Z,8.27
2023-05-25T00:24:18.701Z,8.63
2023-05-25T00:26:45.201Z,8.75
2023-05-25T00:29:12.642Z,8.90
2023-05-25T00:31:39.132Z,9.07
2023-05-25T00:34:05.714Z,9.07
2023-05-25T00:36:32.178Z,8.48
2023-05-25T00:38:58.669Z,7.93
2023-05-25T00:41:26.254Z,8.65
2023-05-25T00:43:52.694Z,8.65
2023-05-25T00:46:19.443Z,8.52
2023-05-25T00:48:45.965Z,8.02
2023-05-25T00:51:14.002Z,8.38
2023-05-25T00:53:41.378Z,8.52
2023-05-25T00:56:15.892Z,7.35
2023-05-25T00:58:42.995Z,8.15
2023-05-25T01:01:12.356Z,8.65
2023-05-25T01:03:40.221Z,8.70
2023-05-25T01:06:10.832Z,8.65
2023-05-25T01:08:38.540Z,8.02
2023-05-25T01:11:06.616Z,8.20
2023-05-25T01:13:34.422Z,8.32
2023-05-25T01:16:00.945Z,8.15
2023-05-25T01:18:28.277Z,8.65
2023-05-25T01:21:20.247Z,8.98
2023-05-25T01:23:50.343Z,8.70
2023-05-25T01:26:18.461Z,8.60
2023-05-25T01:28:50.380Z,8.32
2023-05-25T01:31:19.061Z,9.07
2023-05-25T01:33:45.593Z,8.30
2023-05-25T01:36:12.018Z,8.88
2023-05-25T01:38:39.030Z,9.10
2023-05-25T01:41:05.695Z,9.15
2023-05-25T01:43:32.082Z,9.10
2023-05-25T01:46:18.845Z,8.98
2023-05-25T01:48:54.958Z,8.52
2023-05-25T01:51:32.136Z,8.45
2023-05-25T01:54:05.277Z,8.48
2023-05-25T01:56:32.813Z,9.05
2023-05-25T01:59:01.946Z,8.50
2023-05-25T02:01:28.990Z,9.25
2023-05-25T02:03:56.896Z,9.05
2023-05-25T02:06:23.400Z,9.35
2023-05-25T02:08:49.815Z,9.63
2023-05-25T02:11:16.349Z,9.48
2023-05-25T02:13:42.788Z,9.00
2023-05-25T02:16:09.259Z,9.35
2023-05-25T02:18:35.861Z,9.10
2023-05-25T02:21:02.346Z,9.80
2023-05-25T02:23:28.798Z,9.77
2023-05-25T02:25:56.035Z,9.32
2023-05-25T02:28:22.471Z,10.20
2023-05-25T02:30:48.877Z,9.82
2023-05-25T02:33:15.332Z,9.50
2023-05-25T02:35:42.021Z,10.32
2023-05-25T02:38:08.635Z,9.95
2023-05-25T02:40:35.389Z,9.90
2023-05-25T02:43:01.823Z,10.48
2023-05-25T02:45:28.290Z,10.90
2023-05-25T02:47:54.806Z,11.77
2023-05-25T02:50:21.265Z,12.10
2023-05-25T02:52:47.741Z,11.23
2023-05-25T02:55:14.600Z,11.80
2023-05-25T02:57:42.025Z,10.93
2023-05-25T03:00:08.705Z,11.07
2023-05-25T03:02:35.202Z,10.70
2023-05-25T03:05:04.201Z,11.55
2023-05-25T03:07:31.620Z,10.50
2023-05-25T03:09:58.433Z,10.90
2023-05-25T03:12:24.865Z,11.70
2023-05-25T03:14:51.362Z,12.48
2023-05-25T03:17:17.818Z,10.98
2023-05-25T03:19:44.376Z,11.50
2023-05-25T03:22:11.020Z,12.27
2023-05-25T03:24:41.381Z,12.50
2023-05-25T03:27:08.492Z,12.23
2023-05-25T03:29:35.279Z,12.65
2023-05-25T03:32:01.787Z,11.45
2023-05-25T03:34:29.486Z,12.52
2023-05-25T03:36:56.269Z,13.25
2023-05-25T03:39:22.770Z,12.93
2023-05-25T03:41:49.313Z,12.65
2023-05-25T03:44:15.882Z,13.20
2023-05-25T03:46:42.522Z,13.60
2023-05-25T03:49:13.636Z,13.48
2023-05-25T03:51:43.427Z,13.23
2023-05-25T03:54:09.933Z,13.77
2023-05-25T03:56:36.539Z,14.68
2023-05-25T03:59:03.045Z,13.80
2023-05-25T04:01:30.172Z,14.50
2023-05-25T04:03:57.250Z,13.02
2023-05-25T04:06:25.434Z,13.20
2023-05-25T04:08:52.389Z,14.25
2023-05-25T04:11:19.313Z,13.85
2023-05-25T04:13:46.196Z,14.07
2023-05-25T04:16:13.310Z,13.27
2023-05-25T04:18:39.789Z,14.93
2023-05-25T04:21:06.392Z,13.25
2023-05-25T04:23:33.924Z,12.65
2023-05-25T04:26:00.808Z,13.75
2023-05-25T04:28:28.326Z,13.25
2023-05-25T04:30:57.745Z,13.25
2023-05-25T04:33:24.723Z,14.48
2023-05-25T04:35:51.217Z,13.23
2023-05-25T04:38:17.715Z,13.90
2023-05-25T04:40:46.375Z,13.88
2023-05-25T04:43:13.644Z,13.73
2023-05-25T04:45:40.195Z,14.10
2023-05-25T04:48:07.302Z,14.77
2023-05-25T04:50:33.903Z,15.57
2023-05-25T04:53:00.560Z,13.30
2023-05-25T04:55:26.974Z,14.73
2023-05-25T04:57:54.766Z,13.63
2023-05-25T05:00:22.018Z,13.77
2023-05-25T05:02:49.033Z,14.45
2023-05-25T05:05:15.738Z,14.18
2023-05-25T05:07:42.345Z,12.38
2023-05-25T05:10:09.161Z,13.30
2023-05-25T05:12:35.681Z,12.63
2023-05-25T05:15:02.191Z,13.30
2023-05-25T05:17:30.664Z,12.77
2023-05-25T05:19:57.525Z,13.38
2023-05-25T05:22:24.009Z,13.05
2023-05-25T05:24:50.954Z,12.95
2023-05-25T05:27:19.161Z,13.52
2023-05-25T05:29:46.264Z,13.07
2023-05-25T05:32:12.756Z,13.82
2023-05-25T05:34:39.256Z,13.70
2023-05-25T05:37:05.710Z,13.60
2023-05-25T05:39:32.157Z,13.85
2023-05-25T05:41:59.171Z,13.27
2023-05-25T05:44:28.985Z,13.75
2023-05-25T05:47:00.518Z,13.45
2023-05-25T05:49:31.469Z,13.27
2023-05-25T05:51:58.306Z,12.35
2023-05-25T05:54:24.858Z,13.15
2023-05-25T05:56:51.620Z,13.88
2023-05-25T05:59:18.107Z,12.85
2023-05-25T06:01:44.601Z,13.65
2023-05-25T06:04:11.108Z,13.48
2023-05-25T06:06:38.597Z,14.88
2023-05-25T06:09:06.788Z,14.02
2023-05-25T06:11:36.873Z,13.27
2023-05-25T06:14:03.932Z,14.52
2023-05-25T06:16:30.405Z,13.30
2023-05-25T06:18:56.872Z,13.80
2023-05-25T06:21:23.348Z,16.33
2023-05-25T06:23:49.812Z,15.35
2023-05-25T06:26:16.264Z,15.05
2023-05-25T06:28:42.722Z,15.15
2023-05-25T06:31:09.197Z,15.13
2023-05-25T06:33:35.682Z,13.15
2023-05-25T06:36:02.106Z,13.25
2023-05-25T06:38:28.834Z,12.70
2023-05-25T06:40:55.576Z,12.52
2023-05-25T06:43:22.054Z,11.98
2023-05-25T06:45:48.691Z,11.63
2023-05-25T06:48:15.214Z,12.02
2023-05-25T06:50:42.375Z,11.13
2023-05-25T06:53:10.891Z,10.20
2023-05-25T06:55:37.358Z,11.00
2023-05-25T06:58:03.797Z,9.95
2023-05-25T07:00:30.450Z,10.23
2023-05-25T07:02:56.896Z,10.82
2023-05-25T07:05:23.460Z,10.68
2023-05-25T07:07:50.095Z,10.15
2023-05-25T07:10:17.336Z,10.60
2023-05-25T07:12:44.191Z,10.25
2023-05-25T07:15:11.236Z,9.68
2023-05-25T07:17:37.752Z,9.32
2023-05-25T07:20:06.177Z,9.25
2023-05-25T07:22:32.822Z,8.93
2023-05-25T07:24:59.358Z,10.25
2023-05-25T07:27:25.811Z,10.10
2023-05-25T07:29:52.345Z,10.02
2023-05-25T07:32:18.801Z,9.13
2023-05-25T07:34:45.431Z,9.10
2023-05-25T07:37:11.827Z,9.60
2023-05-25T07:39:40.398Z,9.55
2023-05-25T07:42:06.888Z,9.75
2023-05-25T07:44:33.371Z,8.95
2023-05-25T07:46:59.901Z,10.10
2023-05-25T07:49:26.394Z,9.25
2023-05-25T07:51:52.849Z,9.05
2023-05-25T07:54:19.362Z,9.10
2023-05-25T07:56:45.770Z,9.63
2023-05-25T07:59:12.218Z,8.98
2023-05-25T08:01:39.127Z,8.77
2023-05-25T08:04:06.133Z,8.32
2023-05-25T08:06:34.336Z,8.27
2023-05-25T08:09:00.821Z,9.45
2023-05-25T08:11:27.694Z,8.90
2023-05-25T08:13:54.181Z,8.88
2023-05-25T08:16:20.675Z,8.65
2023-05-25T08:18:47.264Z,9.10
2023-05-25T08:21:13.939Z,8.68
2023-05-25T08:23:42.415Z,8.25
2023-05-25T08:26:24.462Z,9.45
2023-05-25T08:29:00.889Z,9.32
2023-05-25T08:31:28.929Z,10.00
2023-05-25T08:33:55.506Z,9.23
2023-05-25T08:36:21.968Z,9.88
2023-05-25T08:38:48.356Z,9.63
2023-05-25T08:41:14.895Z,9.48
2023-05-25T08:43:41.757Z,9.60
2023-05-25T08:46:08.968Z,9.50
2023-05-25T08:48:41.648Z,9.52
2023-05-25T08:51:10.991Z,9.43
2023-05-25T08:53:39.520Z,8.50
2023-05-25T08:56:26.775Z,8.82
2023-05-25T08:58:58.176Z,9.43
2023-05-25T09:01:27.683Z,10.05
2023-05-25T09:03:55.319Z,9.93
2023-05-25T09:06:23.131Z,10.02
2023-05-25T09:08:49.716Z,9.95
2023-05-25T09:11:17.789Z,10.98
2023-05-25T09:13:53.272Z,11.98
2023-05-25T09:16:20.032Z,14.00
2023-05-25T09:18:46.559Z,15.40
2023-05-25T09:21:13.066Z,15.80
2023-05-25T09:23:39.667Z,17.33
2023-05-25T09:26:06.333Z,17.80
2023-05-25T09:28:32.770Z,16.42
2023-05-25T09:30:59.331Z,11.48
2023-05-25T09:33:26.179Z,14.05
2023-05-25T09:35:52.752Z,15.63
2023-05-25T09:38:19.635Z,17.15
2023-05-25T09:40:46.689Z,27.70
2023-05-25T09:43:19.451Z,25.67
2023-05-25T09:45:48.741Z,16.17
2023-05-25T09:48:15.604Z,21.60
2023-05-25T09:50:42.158Z,73.15
2023-05-25T09:53:08.674Z,46.65
2023-05-25T09:55:51.479Z,17.55
2023-05-25T09:58:23.724Z,15.10
2023-05-25T10:00:54.712Z,13.45
2023-05-25T10:03:21.831Z,12.88
2023-05-25T10:05:48.940Z,11.82
2023-05-25T10:08:18.049Z,11.82
2023-05-25T10:10:45.108Z,12.05
2023-05-25T10:13:12.709Z,12.18
2023-05-25T10:15:41.135Z,13.88
2023-05-25T10:18:09.447Z,12.90
2023-05-25T10:20:36.504Z,12.55
2023-05-25T10:23:14.899Z,13.07
2023-05-25T10:25:45.008Z,14.93
2023-05-25T10:28:22.984Z,14.18
2023-05-25T10:30:49.836Z,13.45
2023-05-25T10:33:16.692Z,13.55
2023-05-25T10:36:01.362Z,13.73
2023-05-25T10:38:31.447Z,13.57
2023-05-25T10:40:59.529Z,14.18
2023-05-25T10:43:26.552Z,13.35
2023-05-25T10:45:54.530Z,13.57
2023-05-25T10:48:22.915Z,13.18
2023-05-25T10:50:52.695Z,13.38
2023-05-25T10:53:21.243Z,12.55
2023-05-25T10:55:53.821Z,11.27
2023-05-25T10:58:21.855Z,10.93
2023-05-25T11:01:00.593Z,10.20
2023-05-25T11:03:45.703Z,10.13
2023-05-25T11:06:16.271Z,10.27
2023-05-25T11:08:55.837Z,9.55
2023-05-25T11:11:23.131Z,10.13
2023-05-25T11:13:50.214Z,9.20
2023-05-25T11:16:40.065Z,7.72
2023-05-25T11:19:14.840Z,7.35
2023-05-25T11:21:42.817Z,7.50
2023-05-25T11:24:17.085Z,7.57
2023-05-25T11:26:57.709Z,6.47
2023-05-25T11:29:25.960Z,6.85
2023-05-25T11:31:55.039Z,6.68
2023-05-25T11:34:24.263Z,6.60
2023-05-25T11:36:54.477Z,6.80
2023-05-25T11:39:24.212Z,6.43
2023-05-25T11:41:55.347Z,6.53
2023-05-25T11:44:29.283Z,6.38
2023-05-25T11:47:01.560Z,6.63
2023-05-25T11:49:28.282Z,6.45
2023-05-25T11:51:56.484Z,6.30
2023-05-25T11:54:27.619Z,5.93
2023-05-25T11:56:58.840Z,5.80
2023-05-25T11:59:32.019Z,5.78
2023-05-25T12:02:00.286Z,5.95
2023-05-25T12:04:27.131Z,6.10
2023-05-25T12:07:01.433Z,5.95
2023-05-25T12:09:27.915Z,5.68
2023-05-25T12:11:54.378Z,5.78
2023-05-25T12:14:21.162Z,4.95
2023-05-25T12:16:47.751Z,4.70
2023-05-25T12:19:14.394Z,4.80
2023-05-25T12:21:41.222Z,4.40
2023-05-25T12:24:08.927Z,4.78
2023-05-25T12:26:36.034Z,4.03
2023-05-25T12:29:07.381Z,4.50
2023-05-25T12:31:35.256Z,3.63
2023-05-25T12:34:15.751Z,4.20
2023-05-25T12:36:53.384Z,3.92
2023-05-25T12:39:29.016Z,3.72
2023-05-25T12:41:56.207Z,3.65
2023-05-25T12:44:26.629Z,3.38
2023-05-25T12:46:54.657Z,4.35
2023-05-25T12:49:25.217Z,4.70
2023-05-25T12:51:51.765Z,3.58
2023-05-25T12:54:37.201Z,3.33
2023-05-25T12:57:08.228Z,3.60
2023-05-25T12:59:36.242Z,3.33
2023-05-25T13:02:04.773Z,4.22
2023-05-25T13:04:31.504Z,3.80
2023-05-25T13:06:58.602Z,3.85
2023-05-25T13:09:26.854Z,3.65
2023-05-25T13:11:54.627Z,3.40
2023-05-25T13:14:22.047Z,4.03
2023-05-25T13:16:49.554Z,4.20
2023-05-25T13:19:16.446Z,4.30
2023-05-25T13:21:42.991Z,4.45
2023-05-25T13:24:09.631Z,4.15
2023-05-25T13:26:36.251Z,4.55
2023-05-25T13:29:02.902Z,4.43
2023-05-25T13:31:29.432Z,4.05
2023-05-25T13:33:57.264Z,4.53
2023-05-25T13:36:23.743Z,4.78
2023-05-25T13:38:50.219Z,4.80
2023-05-25T13:41:16.808Z,4.55
2023-05-25T13:43:43.238Z,4.82
2023-05-25T13:46:18.401Z,3.90
2023-05-25T13:48:52.697Z,4.68
2023-05-25T13:51:19.662Z,4.57
2023-05-25T13:53:46.701Z,4.40
2023-05-25T13:56:13.240Z,4.80
2023-05-25T13:58:39.682Z,3.78
2023-05-25T14:01:06.210Z,4.38
2023-05-25T14:03:33.134Z,3.70
2023-05-25T14:05:59.717Z,3.30
2023-05-25T14:08:26.266Z,4.00
2023-05-25T14:10:52.725Z,3.92
2023-05-25T14:13:19.174Z,3.25
2023-05-25T14:15:45.911Z,3.67
2023-05-25T14:18:12.750Z,3.47
2023-05-25T14:20:41.021Z,3.60
2023-05-25T14:23:07.369Z,3.53
2023-05-25T14:25:33.766Z,3.50
2023-05-25T14:28:00.268Z,4.20
2023-05-25T14:30:26.686Z,3.30
2023-05-25T14:32:53.322Z,3.42
2023-05-25T14:35:19.977Z,3.45
2023-05-25T14:37:46.450Z,3.50
2023-05-25T14:40:13.279Z,4.32
2023-05-25T14:42:39.806Z,3.80
2023-05-25T14:45:08.720Z,4.22
2023-05-25T14:47:37.315Z,3.58
2023-05-25T14:50:03.780Z,4.20
2023-05-25T14:52:30.268Z,3.88
2023-05-25T14:54:56.780Z,4.45
2023-05-25T14:57:23.862Z,4.43
2023-05-25T14:59:50.483Z,4.03
2023-05-25T15:02:17.101Z,4.20
2023-05-25T15:04:43.691Z,4.15
2023-05-25T15:07:12.912Z,4.38
2023-05-25T15:09:40.662Z,3.88
2023-05-25T15:12:08.030Z,4.57
2023-05-25T15:14:35.320Z,4.13
2023-05-25T15:17:01.740Z,3.72
2023-05-25T15:19:28.210Z,4.38
2023-05-25T15:21:54.617Z,3.63
2023-05-25T15:24:21.656Z,4.20
2023-05-25T15:26:48.171Z,4.68
2023-05-25T15:29:14.670Z,4.88
2023-05-25T15:31:41.417Z,4.75
2023-05-25T15:34:09.174Z,4.20
2023-05-25T15:36:36.363Z,4.53
2023-05-25T15:39:03.568Z,4.22
2023-05-25T15:41:30.087Z,4.95
2023-05-25T15:44:01.296Z,4.13
2023-05-25T15:46:28.010Z,4.63
2023-05-25T15:48:54.621Z,4.50
2023-05-25T15:51:21.226Z,4.50
2023-05-25T15:53:47.861Z,4.47
2023-05-25T15:56:14.311Z,5.05
2023-05-25T15:58:40.942Z,4.45
2023-05-25T16:01:07.481Z,4.30
2023-05-25T16:03:34.099Z,4.63
2023-05-25T16:06:02.152Z,4.38
2023-05-25T16:08:28.633Z,4.88
2023-05-25T16:10:55.047Z,3.75
2023-05-25T16:13:21.528Z,5.15
2023-05-25T16:15:48.101Z,4.70
2023-05-25T16:18:16.474Z,4.97
2023-05-25T16:20:43.959Z,4.85
2023-05-25T16:23:10.582Z,4.38
2023-05-25T16:25:37.130Z,4.70
2023-05-25T16:28:03.585Z,4.10
2023-05-25T16:30:30.067Z,5.22
2023-05-25T16:32:56.677Z,4.75
2023-05-25T16:35:23.329Z,4.60
2023-05-25T16:37:49.793Z,4.75
2023-05-25T16:40:16.511Z,4.82
2023-05-25T16:42:43.188Z,5.45
2023-05-25T16:45:09.813Z,5.15
2023-05-25T16:47:36.312Z,5.00
2023-05-25T16:50:02.807Z,5.32
2023-05-25T16:52:29.269Z,5.90
2023-05-25T16:54:56.395Z,5.20
2023-05-25T16:57:22.886Z,4.72
2023-05-25T16:59:50.298Z,5.35
2023-05-25T17:02:17.698Z,4.95
2023-05-25T17:04:44.114Z,4.63
2023-05-25T17:07:10.554Z,5.15
2023-05-25T17:09:36.979Z,5.55
2023-05-25T17:12:06.805Z,5.32
2023-05-25T17:14:33.224Z,5.20
2023-05-25T17:16:59.752Z,5.00
2023-05-25T17:19:26.387Z,4.88
2023-05-25T17:21:52.821Z,4.95
2023-05-25T17:24:19.276Z,5.03
2023-05-25T17:26:46.466Z,4.53
2023-05-25T17:29:12.954Z,4.88
2023-05-25T17:31:39.530Z,4.97
2023-05-25T17:34:05.999Z,4.65
2023-05-25T17:36:32.436Z,6.03
2023-05-25T17:38:58.858Z,4.28
2023-05-25T17:41:26.316Z,5.45
2023-05-25T17:43:52.795Z,4.80
2023-05-25T17:46:19.235Z,5.25
2023-05-25T17:48:45.865Z,5.22
2023-05-25T17:51:12.521Z,5.80
2023-05-25T17:53:39.037Z,5.30
2023-05-25T17:56:05.748Z,5.88
2023-05-25T17:58:32.357Z,5.28
2023-05-25T18:00:59.110Z,6.22
2023-05-25T18:03:25.911Z,5.30
2023-05-25T18:05:52.554Z,5.43
2023-05-25T18:08:18.973Z,5.55
2023-05-25T18:10:45.431Z,5.18
2023-05-25T18:13:11.990Z,5.00
2023-05-25T18:15:38.405Z,5.13
2023-05-25T18:18:06.667Z,5.32
2023-05-25T18:20:33.580Z,5.57
2023-05-25T18:23:00.576Z,5.28
2023-05-25T18:25:27.108Z,5.55
2023-05-25T18:27:53.693Z,5.50
2023-05-25T18:30:20.264Z,6.20
2023-05-25T18:32:46.727Z,5.57
2023-05-25T18:35:13.260Z,5.93
2023-05-25T18:37:39.783Z,6.20
2023-05-25T18:40:07.137Z,6.47
2023-05-25T18:42:34.912Z,6.05
2023-05-25T18:45:01.597Z,5.82
2023-05-25T18:47:28.117Z,6.20
2023-05-25T18:49:54.599Z,6.32
2023-05-25T18:52:21.058Z,7.10
2023-05-25T18:54:48.774Z,6.07
2023-05-25T18:57:15.396Z,6.13
2023-05-25T18:59:41.987Z,6.20
2023-05-25T19:02:08.528Z,5.97
2023-05-25T19:04:35.014Z,6.45
2023-05-25T19:07:01.503Z,6.57
2023-05-25T19:09:28.486Z,6.40
2023-05-25T19:11:54.930Z,5.95
2023-05-25T19:14:21.399Z,6.63
2023-05-25T19:16:49.130Z,6.30
2023-05-25T19:19:16.066Z,5.22
2023-05-25T19:21:42.602Z,5.80
2023-05-25T19:24:09.986Z,5.55
2023-05-25T19:26:37.807Z,6.32
2023-05-25T19:29:04.411Z,5.30
2023-05-25T19:31:31.005Z,5.70
2023-05-25T19:33:57.521Z,5.90
2023-05-25T19:36:24.010Z,6.60
2023-05-25T19:38:50.597Z,5.95
2023-05-25T19:41:17.073Z,5.72
2023-05-25T19:43:43.622Z,5.82
2023-05-25T19:46:10.101Z,6.07
2023-05-25T19:48:38.156Z,6.70
2023-05-25T19:51:04.700Z,5.88
2023-05-25T19:53:31.396Z,6.78
2023-05-25T19:55:58.297Z,5.75
2023-05-25T19:58:24.695Z,6.70
2023-05-25T20:00:52.158Z,6.75
2023-05-25T20:03:20.920Z,5.50
2023-05-25T20:05:48.227Z,5.68
2023-05-25T20:08:14.828Z,6.30
2023-05-25T20:10:43.554Z,6.00
2023-05-25T20:13:10.174Z,5.43
2023-05-25T20:15:36.913Z,6.07
2023-05-25T20:18:03.417Z,5.97
2023-05-25T20:20:29.947Z,5.90
2023-05-25T20:22:56.503Z,6.25
2023-05-25T20:25:23.019Z,5.78
2023-05-25T20:27:49.466Z,6.10
2023-05-25T20:30:17.206Z,6.32
2023-05-25T20:32:43.727Z,5.93
2023-05-25T20:35:10.416Z,5.68
2023-05-25T20:37:37.267Z,5.90
2023-05-25T20:40:04.684Z,5.57
2023-05-25T20:42:31.128Z,6.53
2023-05-25T20:44:57.544Z,5.57
2023-05-25T20:47:24.092Z,6.47
2023-05-25T20:49:50.555Z,5.53
2023-05-25T20:52:17.002Z,5.57
2023-05-25T20:54:44.739Z,5.50
2023-05-25T20:57:11.669Z,4.63
2023-05-25T20:59:38.312Z,6.43
2023-05-25T21:02:04.806Z,5.35
2023-05-25T21:04:32.031Z,4.97
2023-05-25T21:06:58.669Z,5.43
2023-05-25T21:09:25.120Z,5.40
2023-05-25T21:11:51.636Z,5.57
2023-05-25T21:14:18.096Z,5.13
2023-05-25T21:16:44.887Z,5.68
2023-05-25T21:19:11.540Z,5.70
2023-05-25T21:21:38.101Z,4.63
2023-05-25T21:24:04.777Z,5.18
2023-05-25T21:26:31.369Z,5.07
2023-05-25T21:28:58.437Z,6.13
2023-05-25T21:31:25.475Z,5.53
2023-05-25T21:33:53.161Z,5.47
2023-05-25T21:36:20.064Z,5.72
2023-05-25T21:38:46.617Z,4.82
2023-05-25T21:41:13.103Z,5.80
2023-05-25T21:43:39.526Z,5.22
2023-05-25T21:46:06.009Z,5.50
2023-05-25T21:48:32.419Z,5.00
2023-05-25T21:50:58.826Z,5.55
2023-05-25T21:53:25.258Z,5.47
2023-05-25T21:55:52.980Z,5.07
2023-05-25T21:58:19.685Z,5.93
2023-05-25T22:00:46.163Z,6.03
2023-05-25T22:03:12.803Z,5.97
2023-05-25T22:05:39.324Z,5.35
2023-05-25T22:08:06.077Z,5.88
2023-05-25T22:10:32.657Z,5.65
2023-05-25T22:12:59.154Z,5.15
2023-05-25T22:15:25.605Z,5.63
2023-05-25T22:17:52.195Z,5.40
2023-05-25T22:20:18.962Z,5.55
2023-05-25T22:22:45.714Z,6.05
2023-05-25T22:25:12.508Z,5.30
2023-05-25T22:27:39.144Z,6.05
2023-05-25T22:30:06.828Z,5.78
2023-05-25T22:32:33.393Z,5.75
2023-05-25T22:34:59.852Z,5.78
2023-05-25T22:37:26.312Z,5.57
2023-05-25T22:39:52.782Z,5.53
2023-05-25T22:42:19.193Z,5.43
2023-05-25T22:44:45.679Z,5.90
2023-05-25T22:47:12.144Z,5.35
2023-05-25T22:49:42.653Z,5.88
2023-05-25T22:52:12.410Z,5.93
2023-05-25T22:54:39.029Z,5.53
2023-05-25T22:57:06.358Z,5.85
2023-05-25T22:59:32.812Z,5.18
2023-05-25T23:01:59.272Z,5.60
2023-05-25T23:04:25.721Z,5.47
2023-05-25T23:06:52.176Z,5.90
2023-05-25T23:09:18.609Z,5.57
2023-05-25T23:11:45.318Z,5.70
2023-05-25T23:14:11.779Z,5.95
2023-05-25T23:16:38.325Z,6.22
2023-05-25T23:19:04.947Z,4.80
2023-05-25T23:21:31.459Z,5.55
2023-05-25T23:23:57.942Z,5.82
2023-05-25T23:26:24.364Z,6.10
2023-05-25T23:28:50.855Z,5.88
2023-05-25T23:31:17.452Z,6.18
2023-05-25T23:33:43.977Z,6.13
2023-05-25T23:36:10.492Z,6.43
2023-05-25T23:38:36.911Z,6.00
2023-05-25T23:41:03.491Z,5.95
2023-05-25T23:43:29.951Z,5.63
2023-05-25T23:45:56.493Z,5.85
2023-05-25T23:48:22.886Z,5.95
2023-05-25T23:50:49.325Z,6.30
2023-05-25T23:53:15.860Z,4.60
2023-05-25T23:55:42.329Z,5.22
2023-05-25T23:58:08.935Z,5.20
